Time;durP1;ratioP1;P1;durP2;ratioP2;P2;SDS_P1;SDS_P2;PMS_P1;PMS_P2;Temp;Humidity;BMP_temperature;BMP_pressure;BME280_temperature;BME280_humidity;BME280_pressure;Samples;Min_cycle;Max_cycle;Signal;HPM_P1;HPM_P2
2023/09/24 00:00:53;;;;;;;29.60;28.00;;;11.10;97.40;;;;;;5007580;28;20335;-72
2023/09/24 00:03:19;;;;;;;14.73;13.77;;;11.10;97.50;;;;;;4991623;28;20297;-72
2023/09/24 00:05:46;;;;;;;32.17;29.93;;;11.10;97.60;;;;;;4991961;28;20292;-72
2023/09/24 00:08:12;;;;;;;33.10;31.30;;;11.00;97.50;;;;;;5007756;28;20135;-72
2023/09/24 00:10:38;;;;;;;25.53;23.87;;;11.00;97.80;;;;;;5007291;28;20315;-72
2023/09/24 00:13:04;;;;;;;23.43;21.80;;;11.00;97.90;;;;;;5005594;28;20078;-72
2023/09/24 00:15:32;;;;;;;28.13;26.53;;;11.00;97.80;;;;;;5012524;28;20045;-72
2023/09/24 00:17:59;;;;;;;13.80;12.47;;;10.90;97.80;;;;;;5000454;28;20237;-72
2023/09/24 00:20:25;;;;;;;18.17;17.03;;;10.90;97.80;;;;;;5002723;28;20339;-72
2023/09/24 00:22:51;;;;;;;21.40;20.13;;;10.90;97.80;;;;;;5003064;28;20316;-72
2023/09/24 00:25:17;;;;;;;25.33;23.60;;;10.90;97.90;;;;;;5002490;28;20273;-72
2023/09/24 00:27:43;;;;;;;22.87;21.50;;;10.80;98.00;;;;;;4989734;28;20069;-72
2023/09/24 00:30:09;;;;;;;24.97;23.60;;;10.80;98.00;;;;;;5004166;28;20465;-72
2023/09/24 00:32:35;;;;;;;19.70;18.50;;;10.80;98.00;;;;;;5000303;28;20046;-72
2023/09/24 00:35:02;;;;;;;17.40;16.17;;;10.80;98.00;;;;;;4994450;28;20322;-72
2023/09/24 00:37:28;;;;;;;19.10;17.90;;;10.70;98.00;;;;;;5019865;28;20034;-72
2023/09/24 00:39:53;;;;;;;31.80;30.30;;;10.70;98.00;;;;;;5007096;28;20284;-72
2023/09/24 00:42:19;;;;;;;27.70;26.40;;;10.70;98.20;;;;;;4999457;28;20042;-72
2023/09/24 00:44:45;;;;;;;23.47;22.27;;;10.70;98.20;;;;;;4996014;28;20112;-72
2023/09/24 00:47:11;;;;;;;23.17;21.60;;;10.80;98.40;;;;;;5006017;28;20029;-73
2023/09/24 00:49:38;;;;;;;21.73;20.43;;;10.80;98.40;;;;;;4984747;28;20040;-72
2023/09/24 00:52:04;;;;;;;15.17;13.97;;;10.80;98.40;;;;;;5001942;28;20299;-72
2023/09/24 00:54:30;;;;;;;22.30;20.97;;;10.80;98.40;;;;;;4985468;28;20355;-72
2023/09/24 00:56:58;;;;;;;18.67;17.33;;;10.80;98.50;;;;;;5002287;28;20276;-72
2023/09/24 00:59:25;;;;;;;20.00;18.80;;;10.80;98.50;;;;;;5012559;28;20295;-72
2023/09/24 01:01:51;;;;;;;24.57;22.97;;;10.80;98.70;;;;;;4998348;28;20436;-72
2023/09/24 01:04:17;;;;;;;18.53;16.97;;;10.70;98.60;;;;;;4997712;28;20308;-72
2023/09/24 01:06:44;;;;;;;26.80;25.37;;;10.70;98.80;;;;;;5006193;28;20327;-72
2023/09/24 01:09:12;;;;;;;39.87;37.87;;;10.70;98.80;;;;;;5002364;28;20121;-72
2023/09/24 01:11:38;;;;;;;16.73;15.50;;;10.70;99.10;;;;;;5006256;28;20379;-72
2023/09/24 01:14:05;;;;;;;25.43;23.90;;;10.70;99.20;;;;;;5005144;28;20284;-72
2023/09/24 01:16:32;;;;;;;24.37;22.80;;;10.70;99.20;;;;;;4985989;28;20297;-72
2023/09/24 01:18:58;;;;;;;34.43;32.53;;;10.60;99.30;;;;;;4985024;28;20772;-72
2023/09/24 01:21:27;;;;;;;33.83;32.07;;;10.60;99.30;;;;;;5001490;28;20736;-72
2023/09/24 01:23:54;;;;;;;32.50;30.40;;;10.60;99.40;;;;;;4996518;28;20643;-72
2023/09/24 01:26:23;;;;;;;24.70;23.37;;;10.60;99.60;;;;;;4987083;28;20288;-72
2023/09/24 01:28:51;;;;;;;22.90;21.73;;;10.60;99.60;;;;;;4996328;28;20285;-72
2023/09/24 01:31:20;;;;;;;20.03;18.47;;;10.50;99.60;;;;;;5004986;28;20684;-72
2023/09/24 01:33:47;;;;;;;13.13;11.93;;;10.50;99.90;;;;;;5012218;28;20285;-72
2023/09/24 01:36:13;;;;;;;20.93;19.70;;;10.60;99.90;;;;;;5007730;28;20685;-72
2023/09/24 01:38:40;;;;;;;29.03;27.43;;;10.60;99.90;;;;;;5010679;28;20284;-72
2023/09/24 01:41:12;;;;;;;24.80;23.17;;;10.70;99.90;;;;;;5003326;28;20088;-72
2023/09/24 01:43:39;;;;;;;20.23;19.07;;;10.80;99.90;;;;;;4994402;28;20350;-72
2023/09/24 01:46:10;;;;;;;30.83;28.97;;;10.80;99.90;;;;;;5002409;28;20282;-72
2023/09/24 01:48:36;;;;;;;32.20;30.07;;;10.90;99.90;;;;;;5001340;28;20875;-72
2023/09/24 01:51:10;;;;;;;25.70;24.20;;;11.00;99.90;;;;;;5005153;28;20368;-72
2023/09/24 01:53:38;;;;;;;22.45;21.08;;;11.00;99.90;;;;;;4992247;28;20041;-72
2023/09/24 01:56:06;;;;;;;18.67;17.43;;;11.00;99.90;;;;;;4988856;28;20165;-72
2023/09/24 01:58:32;;;;;;;20.77;19.30;;;11.10;99.90;;;;;;4993410;28;20292;-72
2023/09/24 02:00:57;;;;;;;28.97;26.90;;;11.10;99.90;;;;;;4990571;28;20923;-72
2023/09/24 02:03:23;;;;;;;22.33;20.90;;;11.20;99.90;;;;;;5004332;28;20376;-72
2023/09/24 02:05:49;;;;;;;25.17;23.27;;;11.30;99.90;;;;;;5007258;28;20042;-72
2023/09/24 02:08:15;;;;;;;23.90;21.80;;;11.40;99.90;;;;;;5003736;28;20120;-72
2023/09/24 02:10:41;;;;;;;21.00;19.27;;;11.40;99.90;;;;;;5010802;28;20034;-72
2023/09/24 02:13:12;;;;;;;17.10;15.70;;;11.50;99.90;;;;;;5008224;28;20083;-72
2023/09/24 02:15:39;;;;;;;24.37;22.73;;;11.60;99.90;;;;;;5008975;28;20300;-72
2023/09/24 02:18:05;;;;;;;29.07;27.23;;;11.60;99.90;;;;;;5023387;28;20283;-72
2023/09/24 02:20:32;;;;;;;15.30;13.97;;;11.70;99.90;;;;;;5002422;28;20284;-72
2023/09/24 02:22:59;;;;;;;25.33;23.60;;;11.80;99.90;;;;;;5009176;28;20308;-72
2023/09/24 02:25:26;;;;;;;32.63;30.73;;;11.80;99.90;;;;;;4988081;28;20633;-72
2023/09/24 02:27:52;;;;;;;31.07;29.33;;;11.90;99.90;;;;;;5000269;28;20364;-72
2023/09/24 02:30:19;;;;;;;21.93;19.87;;;11.90;99.90;;;;;;5001205;28;20296;-72
2023/09/24 02:32:46;;;;;;;20.23;18.73;;;11.90;99.90;;;;;;5005918;28;20987;-72
2023/09/24 02:35:13;;;;;;;27.20;25.53;;;11.90;99.90;;;;;;4988428;28;20308;-72
2023/09/24 02:37:45;;;;;;;23.37;21.73;;;12.00;99.90;;;;;;4997308;28;20296;-72
2023/09/24 02:40:19;;;;;;;27.07;25.10;;;12.00;99.90;;;;;;5004442;28;20295;-72
2023/09/24 02:42:48;;;;;;;27.50;25.70;;;12.00;99.90;;;;;;4996177;28;20342;-72
2023/09/24 02:45:18;;;;;;;29.03;27.03;;;12.00;99.90;;;;;;5002014;28;20644;-72
2023/09/24 02:47:46;;;;;;;25.33;23.73;;;12.00;99.90;;;;;;5008935;28;20776;-72
2023/09/24 02:50:15;;;;;;;35.97;33.93;;;12.00;99.90;;;;;;5003172;28;20419;-72
2023/09/24 02:52:48;;;;;;;44.57;42.20;;;12.00;99.90;;;;;;4995933;28;20361;-72
2023/09/24 02:55:14;;;;;;;30.70;28.83;;;12.00;99.90;;;;;;5008535;28;20288;-72
2023/09/24 02:57:41;;;;;;;38.60;36.70;;;12.00;99.90;;;;;;4999106;28;20807;-72
2023/09/24 03:00:18;;;;;;;40.97;38.87;;;11.90;99.90;;;;;;4992619;28;20280;-72
2023/09/24 03:02:44;;;;;;;48.90;46.07;;;11.80;99.90;;;;;;5020146;28;20313;-72
2023/09/24 03:05:19;;;;;;;46.70;44.30;;;11.70;99.90;;;;;;5004762;28;20285;-72
2023/09/24 03:07:45;;;;;;;32.70;30.42;;;11.70;99.90;;;;;;5001992;28;20388;-72
2023/09/24 03:10:13;;;;;;;40.10;37.53;;;11.60;99.90;;;;;;5005223;28;20096;-72
2023/09/24 03:12:42;;;;;;;30.50;28.50;;;11.50;99.90;;;;;;5000460;28;20656;-72
2023/09/24 03:15:11;;;;;;;40.73;38.53;;;11.40;99.90;;;;;;4984352;28;20297;-72
2023/09/24 03:17:39;;;;;;;35.57;33.53;;;11.30;99.90;;;;;;5001044;28;20299;-72
2023/09/24 03:20:15;;;;;;;31.23;29.23;;;11.30;99.90;;;;;;4995769;28;20290;-72
2023/09/24 03:22:49;;;;;;;37.07;34.77;;;11.20;99.90;;;;;;5005895;28;20309;-72
2023/09/24 03:25:19;;;;;;;21.83;20.37;;;11.10;99.90;;;;;;5004511;28;20289;-72
2023/09/24 03:27:46;;;;;;;29.87;28.00;;;11.10;99.90;;;;;;5003934;28;20695;-72
2023/09/24 03:30:14;;;;;;;29.27;27.57;;;11.00;99.90;;;;;;4997854;28;20371;-72
2023/09/24 03:32:43;;;;;;;30.97;28.97;;;11.00;99.90;;;;;;5005422;28;20293;-72
2023/09/24 03:35:09;;;;;;;37.03;34.90;;;10.90;99.90;;;;;;5008307;28;20307;-72
2023/09/24 03:37:40;;;;;;;32.77;30.63;;;10.90;99.90;;;;;;4985601;28;20300;-72
2023/09/24 03:40:27;;;;;;;33.87;31.70;;;10.80;99.90;;;;;;4990826;28;20777;-72
2023/09/24 03:42:53;;;;;;;29.63;27.80;;;10.80;99.90;;;;;;5005340;28;21104;-72
2023/09/24 03:45:23;;;;;;;24.47;22.63;;;10.80;99.90;;;;;;5008502;28;20296;-72
2023/09/24 03:47:49;;;;;;;23.30;21.53;;;10.70;99.90;;;;;;5001685;28;20045;-72
2023/09/24 03:50:17;;;;;;;24.83;23.13;;;10.70;99.90;;;;;;4996400;28;20371;-72
2023/09/24 03:52:44;;;;;;;32.13;29.70;;;10.70;99.90;;;;;;4983576;28;20360;-72
2023/09/24 03:55:10;;;;;;;29.47;27.37;;;10.80;99.90;;;;;;5007718;28;20384;-72
2023/09/24 03:57:37;;;;;;;41.07;38.63;;;10.80;99.90;;;;;;4992073;28;20372;-72
2023/09/24 04:00:08;;;;;;;44.97;42.70;;;10.90;99.90;;;;;;5005115;28;20038;-72
2023/09/24 04:02:35;;;;;;;25.90;23.70;;;11.00;99.90;;;;;;4991525;28;20661;-72
2023/09/24 04:05:00;;;;;;;33.57;31.30;;;11.00;99.90;;;;;;5024372;28;20300;-72
2023/09/24 04:07:27;;;;;;;49.87;46.83;;;11.10;99.90;;;;;;5008095;28;20289;-72
2023/09/24 04:09:54;;;;;;;26.13;23.70;;;11.10;99.90;;;;;;5007302;28;20506;-72
2023/09/24 04:12:20;;;;;;;35.07;32.87;;;11.10;99.90;;;;;;5001798;28;20296;-72
2023/09/24 04:14:45;;;;;;;35.37;33.17;;;11.10;99.90;;;;;;5007607;28;20293;-72
2023/09/24 04:17:11;;;;;;;28.07;25.70;;;11.10;99.90;;;;;;4996426;28;20091;-72
2023/09/24 04:19:37;;;;;;;20.07;17.73;;;11.10;99.90;;;;;;5006879;28;20041;-72
2023/09/24 04:22:03;;;;;;;24.93;22.63;;;11.20;99.90;;;;;;5002932;28;20042;-72
2023/09/24 04:24:28;;;;;;;33.93;31.83;;;11.20;99.90;;;;;;5006710;28;20104;-72
2023/09/24 04:26:54;;;;;;;40.50;37.87;;;11.20;99.90;;;;;;5000975;28;20046;-72
2023/09/24 04:29:20;;;;;;;35.23;33.13;;;11.20;99.90;;;;;;5007258;28;20041;-72
2023/09/24 04:31:46;;;;;;;37.73;35.23;;;11.20;99.90;;;;;;5004010;28;20877;-72
2023/09/24 04:34:13;;;;;;;60.47;57.03;;;11.30;99.90;;;;;;5001415;28;20304;-72
2023/09/24 04:36:39;;;;;;;34.40;32.00;;;11.30;99.90;;;;;;4985315;28;20502;-72
2023/09/24 04:39:09;;;;;;;30.90;28.80;;;11.30;99.90;;;;;;4981184;28;20281;-72
2023/09/24 04:41:37;;;;;;;32.40;30.13;;;11.30;99.90;;;;;;4999478;28;20358;-73
2023/09/24 04:44:03;;;;;;;43.00;40.57;;;11.30;99.90;;;;;;4992814;28;20292;-73
2023/09/24 04:46:29;;;;;;;43.47;40.97;;;11.30;99.90;;;;;;5005418;28;20408;-72
2023/09/24 04:48:54;;;;;;;54.00;51.23;;;11.30;99.90;;;;;;4990240;28;20407;-72
2023/09/24 04:51:20;;;;;;;37.03;34.80;;;11.20;99.90;;;;;;4981565;28;20046;-72
2023/09/24 04:53:46;;;;;;;42.23;39.97;;;11.20;99.90;;;;;;4994590;28;20101;-72
2023/09/24 04:56:11;;;;;;;51.60;48.50;;;11.10;99.90;;;;;;5000027;28;20467;-72
2023/09/24 04:58:38;;;;;;;84.40;80.37;;;11.10;99.90;;;;;;4994666;28;20520;-72
2023/09/24 05:01:07;;;;;;;88.17;83.83;;;11.00;99.90;;;;;;5001953;28;20066;-72
2023/09/24 05:03:37;;;;;;;82.27;78.27;;;10.90;99.90;;;;;;4999572;28;20324;-72
2023/09/24 05:06:03;;;;;;;83.40;79.33;;;10.80;99.90;;;;;;4979994;28;20333;-72
2023/09/24 05:08:29;;;;;;;78.97;75.27;;;10.80;99.90;;;;;;5000850;28;20296;-73
2023/09/24 05:10:55;;;;;;;78.33;74.73;;;10.70;99.90;;;;;;5009878;28;20068;-72
2023/09/24 05:13:21;;;;;;;71.10;67.53;;;10.60;99.90;;;;;;5007921;28;20122;-72
2023/09/24 05:16:00;;;;;;;73.47;69.97;;;10.60;99.90;;;;;;5003128;28;20534;-72
2023/09/24 05:18:26;;;;;;;59.93;56.97;;;10.50;99.90;;;;;;5005628;28;20372;-72
2023/09/24 05:20:52;;;;;;;60.37;57.30;;;10.50;99.90;;;;;;5010811;28;20374;-72
2023/09/24 05:23:17;;;;;;;65.53;61.80;;;10.50;99.90;;;;;;5009214;28;20301;-72
2023/09/24 05:25:43;;;;;;;51.50;48.50;;;10.40;99.90;;;;;;5005305;28;20372;-72
2023/09/24 05:28:09;;;;;;;53.97;50.67;;;10.40;99.90;;;;;;5003722;28;20084;-72
2023/09/24 05:30:35;;;;;;;62.23;58.97;;;10.40;99.90;;;;;;4995493;28;20289;-72
2023/09/24 05:33:01;;;;;;;51.30;48.50;;;10.40;99.90;;;;;;4994703;28;20038;-72
2023/09/24 05:35:27;;;;;;;57.60;54.30;;;10.30;99.90;;;;;;5008518;28;20073;-72
2023/09/24 05:37:52;;;;;;;58.33;54.93;;;10.30;99.90;;;;;;4986385;28;20124;-72
2023/09/24 05:40:18;;;;;;;48.40;45.80;;;10.30;99.90;;;;;;4995289;28;20498;-72
2023/09/24 05:42:44;;;;;;;59.33;56.10;;;10.20;99.90;;;;;;5008952;28;20042;-72
2023/09/24 05:45:10;;;;;;;57.70;54.50;;;10.20;99.90;;;;;;5005521;28;20045;-72
2023/09/24 05:47:36;;;;;;;72.73;69.30;;;10.20;99.90;;;;;;4995591;28;20382;-72
2023/09/24 05:50:05;;;;;;;62.57;59.47;;;10.20;99.90;;;;;;5004838;28;20285;-72
2023/09/24 05:52:31;;;;;;;58.37;55.00;;;10.20;99.90;;;;;;5005272;28;20464;-72
2023/09/24 05:54:57;;;;;;;57.47;54.27;;;10.20;99.90;;;;;;4992621;28;20324;-72
2023/09/24 05:57:27;;;;;;;95.30;90.47;;;10.20;99.90;;;;;;4996435;28;20300;-72
2023/09/24 05:59:56;;;;;;;60.73;57.30;;;10.30;99.90;;;;;;5007611;28;20331;-72
2023/09/24 06:02:25;;;;;;;57.87;54.67;;;10.30;99.90;;;;;;5008174;28;20309;-72
2023/09/24 06:04:53;;;;;;;64.77;61.23;;;10.30;99.90;;;;;;4987840;28;20316;-72
2023/09/24 06:07:19;;;;;;;62.80;59.50;;;10.30;99.90;;;;;;5009527;28;20297;-72
2023/09/24 06:09:44;;;;;;;59.70;56.43;;;10.40;99.90;;;;;;5006053;28;20634;-72
2023/09/24 06:12:10;;;;;;;60.60;57.40;;;10.40;99.90;;;;;;4993789;28;20034;-72
2023/09/24 06:14:36;;;;;;;56.20;52.60;;;10.40;99.90;;;;;;5006754;28;20056;-72
2023/09/24 06:17:03;;;;;;;56.27;53.00;;;10.50;99.90;;;;;;4995949;28;20038;-72
2023/09/24 06:19:30;;;;;;;64.13;60.57;;;10.50;99.90;;;;;;5006784;28;20041;-72
2023/09/24 06:21:55;;;;;;;72.60;68.97;;;10.60;99.90;;;;;;5020411;28;20311;-72
2023/09/24 06:24:22;;;;;;;79.67;75.67;;;10.60;99.90;;;;;;5006727;28;20285;-72
2023/09/24 06:26:48;;;;;;;92.57;88.17;;;10.70;99.90;;;;;;5005899;28;20092;-72
2023/09/24 06:29:14;;;;;;;59.30;56.37;;;10.70;99.90;;;;;;5006458;28;20319;-72
2023/09/24 06:31:40;;;;;;;45.20;42.57;;;10.80;99.90;;;;;;5005517;28;20392;-72
2023/09/24 06:34:06;;;;;;;49.63;46.57;;;10.80;99.90;;;;;;5008738;28;20388;-72
2023/09/24 06:36:32;;;;;;;37.47;34.83;;;10.90;99.90;;;;;;5005686;28;20081;-72
2023/09/24 06:38:59;;;;;;;36.70;34.33;;;10.90;99.90;;;;;;5006731;28;20285;-72
2023/09/24 06:41:25;;;;;;;38.50;35.73;;;10.90;99.90;;;;;;5005844;28;20045;-72
2023/09/24 06:43:51;;;;;;;41.63;39.03;;;10.90;99.90;;;;;;5009992;28;20324;-72
2023/09/24 06:46:17;;;;;;;45.73;43.20;;;11.00;99.90;;;;;;4998476;28;20117;-72
2023/09/24 06:48:42;;;;;;;42.73;40.17;;;11.00;99.90;;;;;;4989575;28;20066;-72
2023/09/24 06:51:11;;;;;;;63.70;59.77;;;11.10;99.90;;;;;;4998771;28;20453;-72
2023/09/24 06:53:38;;;;;;;40.90;38.33;;;11.10;99.90;;;;;;5006349;28;20050;-72
2023/09/24 06:56:05;;;;;;;116.37;110.70;;;11.10;99.90;;;;;;5005426;28;20296;-72
2023/09/24 06:58:33;;;;;;;74.97;71.23;;;11.20;99.90;;;;;;4998667;28;21154;-72
2023/09/24 07:01:01;;;;;;;86.40;81.80;;;11.20;99.90;;;;;;5002654;28;20332;-72
2023/09/24 07:03:27;;;;;;;78.40;74.60;;;11.30;99.90;;;;;;4999664;28;20297;-72
2023/09/24 07:05:53;;;;;;;81.77;77.77;;;11.30;99.90;;;;;;5002364;28;20280;-72
2023/09/24 07:08:20;;;;;;;74.37;70.40;;;11.30;99.90;;;;;;5004572;28;20880;-72
2023/09/24 07:10:46;;;;;;;85.53;81.27;;;11.40;99.90;;;;;;4999992;28;20280;-72
2023/09/24 07:13:12;;;;;;;102.07;97.20;;;11.50;99.90;;;;;;5007188;28;20282;-72
2023/09/24 07:15:38;;;;;;;96.27;91.70;;;11.60;99.90;;;;;;5001245;28;20301;-72
2023/09/24 07:18:03;;;;;;;93.87;88.97;;;11.70;99.90;;;;;;5006542;28;20061;-72
2023/09/24 07:20:29;;;;;;;103.07;97.80;;;11.70;99.90;;;;;;5001999;28;20091;-72
2023/09/24 07:22:55;;;;;;;111.90;106.70;;;11.80;99.90;;;;;;4989272;28;20049;-72
2023/09/24 07:25:20;;;;;;;107.00;101.87;;;12.00;99.90;;;;;;4982330;28;20034;-72
2023/09/24 07:27:47;;;;;;;119.40;113.87;;;12.00;99.90;;;;;;5002739;28;20128;-72
2023/09/24 07:30:13;;;;;;;102.83;97.73;;;12.10;99.90;;;;;;5000146;28;20486;-72
2023/09/24 07:32:39;;;;;;;111.67;106.27;;;12.30;99.80;;;;;;5008155;28;20281;-72
2023/09/24 07:35:08;;;;;;;97.13;92.53;;;12.40;99.70;;;;;;5000193;28;20296;-72
2023/09/24 07:37:33;;;;;;;118.27;112.80;;;12.50;99.50;;;;;;4988400;28;20050;-72
2023/09/24 07:40:00;;;;;;;96.70;92.17;;;12.60;99.20;;;;;;4984651;28;20784;-72
2023/09/24 07:42:26;;;;;;;115.57;110.27;;;12.70;99.20;;;;;;4996776;28;20371;-72
2023/09/24 07:44:52;;;;;;;110.03;105.13;;;12.90;99.10;;;;;;5003471;28;20285;-73
2023/09/24 07:47:17;;;;;;;107.00;102.10;;;13.00;98.70;;;;;;5001147;28;20034;-72
2023/09/24 07:49:43;;;;;;;114.73;109.40;;;13.10;98.00;;;;;;4991686;28;20417;-72
2023/09/24 07:52:09;;;;;;;99.90;95.17;;;13.20;97.90;;;;;;4999368;28;20049;-72
2023/09/24 07:54:35;;;;;;;104.50;99.70;;;13.20;97.60;;;;;;5000994;28;20285;-72
2023/09/24 07:57:00;;;;;;;108.30;103.00;;;13.20;97.40;;;;;;5001908;28;20465;-73
2023/09/24 07:59:26;;;;;;;111.13;106.17;;;13.30;97.10;;;;;;4999016;28;20049;-73
2023/09/24 08:01:52;;;;;;;112.00;106.87;;;13.30;97.10;;;;;;5000670;28;20085;-73
2023/09/24 08:04:17;;;;;;;120.40;114.87;;;13.50;97.30;;;;;;5001020;28;20513;-72
2023/09/24 08:06:43;;;;;;;115.87;109.97;;;13.60;96.90;;;;;;4999196;28;20379;-72
2023/09/24 08:09:09;;;;;;;167.07;158.80;;;13.70;96.60;;;;;;5002378;28;20041;-72
2023/09/24 08:11:34;;;;;;;118.40;112.90;;;13.80;96.10;;;;;;4985198;28;20614;-72
2023/09/24 08:14:01;;;;;;;144.97;138.33;;;13.90;95.60;;;;;;5000157;28;20034;-72
2023/09/24 08:16:28;;;;;;;128.07;122.37;;;14.00;95.80;;;;;;4984111;28;20045;-72
2023/09/24 08:18:53;;;;;;;92.70;87.97;;;14.00;95.10;;;;;;4986328;28;20360;-73
2023/09/24 08:21:19;;;;;;;119.17;113.53;;;14.10;94.90;;;;;;4999029;28;20371;-73
2023/09/24 08:23:44;;;;;;;113.77;108.23;;;14.20;94.90;;;;;;5001294;28;20100;-73
2023/09/24 08:26:10;;;;;;;112.40;107.27;;;14.40;94.80;;;;;;4997713;28;20038;-73
2023/09/24 08:28:36;;;;;;;115.93;110.47;;;14.50;94.70;;;;;;5000849;28;20516;-73
2023/09/24 08:31:11;;;;;;;106.00;101.37;;;14.60;94.20;;;;;;4996468;28;20034;-73
2023/09/24 08:33:37;;;;;;;119.50;114.00;;;14.80;94.00;;;;;;4987376;28;20112;-72
2023/09/24 08:36:10;;;;;;;206.80;196.03;;;14.90;93.50;;;;;;5001846;28;20679;-72
2023/09/24 08:38:36;;;;;;;145.63;138.33;;;15.10;92.40;;;;;;4996055;28;20288;-72
2023/09/24 08:41:09;;;;;;;90.70;86.63;;;15.20;91.20;;;;;;5007179;28;20295;-72
2023/09/24 08:43:37;;;;;;;122.40;116.30;;;15.30;90.50;;;;;;5011715;28;20049;-72
2023/09/24 08:46:02;;;;;;;119.83;113.97;;;15.40;89.50;;;;;;5005771;28;20364;-73
2023/09/24 08:48:29;;;;;;;112.60;107.17;;;15.40;89.30;;;;;;5024649;28;21501;-72
2023/09/24 08:50:56;;;;;;;101.73;97.03;;;15.50;89.10;;;;;;5003701;28;20133;-72
2023/09/24 08:53:23;;;;;;;136.00;129.70;;;15.50;87.60;;;;;;4992705;28;20284;-72
2023/09/24 08:55:49;;;;;;;75.60;72.10;;;15.50;87.50;;;;;;5007152;28;20332;-72
2023/09/24 08:58:14;;;;;;;161.73;154.13;;;15.50;87.60;;;;;;4996873;28;20281;-72
2023/09/24 09:00:42;;;;;;;124.30;118.43;;;15.60;86.70;;;;;;5007035;28;20514;-73
2023/09/24 09:03:07;;;;;;;90.53;86.03;;;15.60;85.30;;;;;;4989196;28;20054;-72
2023/09/24 09:05:37;;;;;;;74.80;71.47;;;15.60;85.30;;;;;;5010456;28;20292;-72
2023/09/24 09:08:04;;;;;;;111.37;105.90;;;15.60;85.60;;;;;;5014111;28;20037;-72
2023/09/24 09:10:32;;;;;;;91.03;86.73;;;15.70;85.70;;;;;;5013531;28;20304;-72
2023/09/24 09:13:15;;;;;;;101.47;96.83;;;15.70;84.00;;;;;;5010080;28;20285;-72
2023/09/24 09:15:45;;;;;;;85.33;81.23;;;15.80;84.30;;;;;;5007443;28;20381;-72
2023/09/24 09:18:24;;;;;;;68.83;65.73;;;15.80;83.60;;;;;;5012758;28;20284;-73
2023/09/24 09:20:58;;;;;;;68.53;65.33;;;15.80;82.60;;;;;;5008169;28;20284;-73
2023/09/24 09:23:32;;;;;;;84.57;80.63;;;15.90;82.10;;;;;;5024188;28;20339;-73
2023/09/24 09:25:58;;;;;;;79.70;75.97;;;16.00;82.20;;;;;;5009346;28;20295;-72
2023/09/24 09:28:25;;;;;;;81.60;77.87;;;16.10;81.70;;;;;;5009056;28;20775;-72
2023/09/24 09:31:03;;;;;;;129.20;122.83;;;16.20;82.30;;;;;;5014466;28;20085;-73
2023/09/24 09:33:30;;;;;;;156.27;148.50;;;16.20;79.30;;;;;;4996234;28;21661;-73
2023/09/24 09:35:57;;;;;;;69.87;66.80;;;16.30;80.70;;;;;;5008655;28;20308;-73
2023/09/24 09:38:24;;;;;;;219.37;208.50;;;16.40;79.80;;;;;;5015193;28;20283;-73
2023/09/24 09:40:55;;;;;;;121.43;115.43;;;16.50;79.80;;;;;;5018139;28;20880;-73
2023/09/24 09:43:25;;;;;;;117.50;112.40;;;16.60;79.60;;;;;;5008475;28;20732;-73
2023/09/24 09:45:56;;;;;;;113.03;107.90;;;16.70;80.20;;;;;;4999512;28;20299;-73
2023/09/24 09:48:28;;;;;;;110.60;105.70;;;16.80;78.50;;;;;;5010412;28;20680;-73
2023/09/24 09:51:00;;;;;;;140.90;134.30;;;16.80;79.00;;;;;;5011000;28;20305;-73
2023/09/24 09:53:31;;;;;;;113.80;108.83;;;16.90;76.70;;;;;;5016301;28;20299;-73
2023/09/24 09:55:59;;;;;;;121.97;116.43;;;16.90;77.80;;;;;;5006738;28;20376;-74
2023/09/24 09:58:26;;;;;;;101.97;97.30;;;17.00;78.30;;;;;;5008827;28;20643;-73
2023/09/24 10:00:55;;;;;;;181.60;172.93;;;17.10;77.20;;;;;;5010835;28;20323;-73
2023/09/24 10:03:21;;;;;;;117.93;112.57;;;17.20;77.00;;;;;;5007126;28;20323;-73
2023/09/24 10:05:49;;;;;;;111.97;106.90;;;17.30;76.00;;;;;;5006200;28;20292;-73
2023/09/24 10:08:38;;;;;;;105.07;100.47;;;17.30;75.40;;;;;;4990103;28;20076;-73
2023/09/24 10:11:05;;;;;;;163.17;156.03;;;17.30;74.50;;;;;;5005927;28;20293;-73
2023/09/24 10:13:43;;;;;;;131.13;125.27;;;17.40;75.00;;;;;;4991444;28;20280;-73
2023/09/24 10:16:27;;;;;;;238.93;226.50;;;17.50;75.10;;;;;;5005824;28;20313;-73
2023/09/24 10:19:03;;;;;;;332.20;313.27;;;17.60;73.20;;;;;;5012328;28;20074;-73
2023/09/24 10:21:38;;;;;;;328.43;304.80;;;17.60;72.30;;;;;;5004141;28;20494;-73
2023/09/24 10:24:09;;;;;;;126.32;120.85;;;17.70;72.20;;;;;;4997549;28;20049;-73
2023/09/24 10:27:04;;;;;;;134.63;128.80;;;17.70;72.30;;;;;;4996350;28;20038;-73
2023/09/24 10:29:55;;;;;;;119.60;114.18;;;17.80;72.80;;;;;;5008905;28;20116;-73
2023/09/24 10:32:22;;;;;;;94.20;89.57;;;17.90;69.10;;;;;;5003234;28;20120;-73
2023/09/24 10:34:51;;;;;;;124.20;118.73;;;18.00;71.10;;;;;;4986958;28;20052;-73
2023/09/24 10:37:27;;;;;;;170.77;163.03;;;18.00;70.20;;;;;;4996533;28;20147;-73
2023/09/24 10:42:26;;;;;;;173.13;164.03;;;18.20;70.80;;;;;;5006707;28;20057;-73
2023/09/24 10:45:07;;;;;;;135.80;129.70;;;18.30;69.70;;;;;;5004274;28;20048;-74
2023/09/24 10:47:36;;;;;;;243.47;231.43;;;18.40;68.10;;;;;;5002923;28;20086;-74
2023/09/24 10:50:14;;;;;;;114.70;109.40;;;18.40;67.60;;;;;;4991116;28;20117;-74
2023/09/24 10:52:52;;;;;;;275.37;259.90;;;18.50;68.30;;;;;;5009553;28;20567;-74
2023/09/24 10:55:45;;;;;;;497.10;455.17;;;18.60;66.50;;;;;;5019705;28;20497;-74
2023/09/24 10:58:15;;;;;;;188.30;180.33;;;18.70;64.60;;;;;;5009914;28;20438;-74
2023/09/24 11:00:49;;;;;;;234.80;225.10;;;18.70;66.70;;;;;;5015519;28;20046;-74
2023/09/24 11:03:15;;;;;;;209.18;200.27;;;18.80;67.10;;;;;;5003527;28;20050;-74
2023/09/24 11:05:41;;;;;;;316.40;300.27;;;18.90;67.20;;;;;;4999835;28;20068;-74
2023/09/24 11:08:08;;;;;;;432.77;406.27;;;19.00;65.20;;;;;;5011236;28;20084;-74
2023/09/24 11:10:34;;;;;;;193.97;185.80;;;19.00;62.40;;;;;;5011802;28;20069;-74
2023/09/24 11:13:02;;;;;;;257.60;246.60;;;19.00;62.60;;;;;;5009886;28;20386;-74
2023/09/24 11:15:33;;;;;;;295.20;280.30;;;19.00;63.30;;;;;;5006012;28;20405;-74
2023/09/24 11:17:59;;;;;;;276.17;261.00;;;19.20;62.60;;;;;;4992935;28;20050;-73
2023/09/24 11:20:28;;;;;;;273.57;260.97;;;19.30;61.50;;;;;;5010455;28;20133;-73
2023/09/24 11:22:59;;;;;;;484.13;448.83;;;19.40;62.10;;;;;;5005893;28;20096;-73
2023/09/24 11:25:26;;;;;;;323.43;309.33;;;19.50;60.70;;;;;;5021829;28;20045;-74
2023/09/24 11:27:57;;;;;;;402.83;383.10;;;19.50;61.20;;;;;;5010547;28;20034;-73
2023/09/24 11:30:27;;;;;;;399.13;379.87;;;19.60;61.40;;;;;;5004184;28;20458;-73
2023/09/24 11:32:53;;;;;;;336.90;321.80;;;19.70;61.90;;;;;;5022624;28;20077;-74
2023/09/24 11:35:25;;;;;;;461.13;437.93;;;19.80;62.10;;;;;;5009729;28;20042;-73
2023/09/24 11:37:52;;;;;;;482.53;456.83;;;19.80;60.40;;;;;;5003923;28;20049;-73
2023/09/24 11:40:30;;;;;;;536.70;509.37;;;19.80;60.40;;;;;;5000896;28;20121;-73
2023/09/24 11:43:18;;;;;;;334.17;319.40;;;19.70;60.70;;;;;;5017533;28;20050;-73
2023/09/24 11:45:48;;;;;;;581.33;548.03;;;19.60;60.70;;;;;;5002997;28;20441;-75
2023/09/24 11:48:24;;;;;;;376.17;359.27;;;19.50;61.10;;;;;;4985010;28;20552;-74
2023/09/24 11:50:52;;;;;;;438.60;418.13;;;19.40;60.90;;;;;;5000378;28;20041;-73
2023/09/24 11:53:20;;;;;;;536.33;509.57;;;19.30;62.10;;;;;;5001182;28;20044;-73
2023/09/24 11:55:51;;;;;;;607.50;575.63;;;19.40;62.60;;;;;;5019386;28;20118;-74
2023/09/24 11:58:23;;;;;;;516.60;490.20;;;19.40;63.30;;;;;;5009198;28;20654;-73
2023/09/24 12:00:49;;;;;;;471.77;447.73;;;19.40;62.90;;;;;;5002059;28;20526;-74
2023/09/24 12:03:14;;;;;;;327.57;313.27;;;19.30;61.00;;;;;;4987882;28;20054;-74
2023/09/24 12:05:44;;;;;;;355.53;340.10;;;19.30;61.70;;;;;;5010137;28;20511;-74
2023/09/24 12:08:10;;;;;;;390.40;371.37;;;19.30;62.90;;;;;;5006384;28;20111;-74
2023/09/24 12:10:46;;;;;;;279.90;267.73;;;19.30;62.50;;;;;;5008678;28;20041;-73
2023/09/24 12:13:13;;;;;;;315.63;302.13;;;19.30;63.10;;;;;;5016168;28;20072;-74
2023/09/24 12:15:39;;;;;;;427.70;404.90;;;19.30;62.70;;;;;;5014776;28;20068;-74
2023/09/24 12:18:06;;;;;;;404.03;385.60;;;19.40;61.80;;;;;;4999478;28;20128;-73
2023/09/24 12:20:36;;;;;;;341.63;326.30;;;19.50;62.40;;;;;;5005418;28;20560;-73
2023/09/24 12:23:08;;;;;;;391.67;373.33;;;19.50;63.70;;;;;;5009645;28;20501;-73
2023/09/24 12:25:40;;;;;;;421.33;396.80;;;19.70;62.80;;;;;;5000529;28;20066;-73
2023/09/24 12:28:07;;;;;;;603.57;557.50;;;19.90;62.50;;;;;;5006528;28;20076;-73